Time;durP1;ratioP1;P1;durP2;ratioP2;P2;SDS_P1;SDS_P2;PMS_P1;PMS_P2;Temp;Humidity;BMP_temperature;BMP_pressure;BME280_temperature;BME280_humidity;BME280_pressure;Samples;Min_cycle;Max_cycle;Signal;HPM_P1;HPM_P2
2022/12/13 00:01:14;;;;;;;59.37;44.27;;;-3.90;99.90;;;;;;5044449;28;20501;-75
2022/12/13 00:03:39;;;;;;;51.80;42.13;;;-3.90;99.90;;;;;;5037890;28;20060;-76
2022/12/13 00:06:07;;;;;;;53.73;41.87;;;-3.90;99.90;;;;;;5024165;28;20053;-75
2022/12/13 00:08:33;;;;;;;59.90;42.37;;;-3.90;99.90;;;;;;5020695;28;20106;-67
2022/12/13 00:11:00;;;;;;;57.33;43.00;;;-3.90;99.90;;;;;;5025005;28;20053;-67
2022/12/13 00:13:27;;;;;;;55.83;42.90;;;-3.80;99.90;;;;;;5040674;28;20050;-76
2022/12/13 00:16:05;;;;;;;62.57;47.13;;;-3.90;99.90;;;;;;5026862;28;20093;-76
2022/12/13 00:18:31;;;;;;;59.70;43.87;;;-3.90;99.90;;;;;;5031045;28;20056;-74
2022/12/13 00:20:57;;;;;;;61.57;46.80;;;-3.90;99.90;;;;;;5046357;28;20098;-76
2022/12/13 00:23:27;;;;;;;66.17;47.83;;;-3.90;99.90;;;;;;5028939;28;20131;-76
2022/12/13 00:25:53;;;;;;;56.47;42.88;;;-3.90;99.90;;;;;;5046436;28;20115;-76
2022/12/13 00:28:18;;;;;;;52.67;40.27;;;-4.00;99.90;;;;;;5031304;28;20400;-75
2022/12/13 00:30:44;;;;;;;54.43;41.57;;;-4.00;99.90;;;;;;5040949;28;20359;-76
2022/12/13 00:33:10;;;;;;;54.60;40.50;;;-4.00;99.90;;;;;;5000302;28;20144;-75
2022/12/13 00:35:40;;;;;;;54.67;43.37;;;-4.00;99.90;;;;;;5028341;28;20041;-76
2022/12/13 00:38:08;;;;;;;53.00;39.93;;;-4.00;99.90;;;;;;5054967;28;20056;-75
2022/12/13 00:40:33;;;;;;;67.10;49.37;;;-4.00;99.90;;;;;;5044626;28;21016;-75
2022/12/13 00:42:59;;;;;;;55.97;44.50;;;-4.00;99.90;;;;;;5015158;28;20123;-76
2022/12/13 00:45:25;;;;;;;61.97;45.13;;;-4.00;99.90;;;;;;5025232;28;20048;-76
2022/12/13 00:47:51;;;;;;;59.77;44.23;;;-4.00;99.90;;;;;;5029625;28;20037;-76
2022/12/13 00:50:16;;;;;;;57.33;42.03;;;-4.00;99.90;;;;;;5034669;28;20041;-76
2022/12/13 00:52:42;;;;;;;55.00;42.73;;;-4.00;99.90;;;;;;5027037;28;20037;-74
2022/12/13 00:55:08;;;;;;;52.60;41.17;;;-4.10;99.90;;;;;;5048895;28;20059;-74
2022/12/13 00:57:34;;;;;;;50.70;40.33;;;-4.10;99.90;;;;;;5013195;28;20045;-77
2022/12/13 01:00:00;;;;;;;52.43;40.57;;;-4.10;99.90;;;;;;5030431;28;20494;-76
2022/12/13 01:02:26;;;;;;;54.10;41.77;;;-4.10;99.90;;;;;;5028676;28;20036;-77
2022/12/13 01:04:52;;;;;;;50.83;40.47;;;-4.10;99.90;;;;;;5015355;28;20743;-74
2022/12/13 01:07:17;;;;;;;53.13;42.70;;;-4.10;99.90;;;;;;5026958;28;20045;-76
2022/12/13 01:09:43;;;;;;;52.87;41.27;;;-4.10;99.90;;;;;;5026641;28;20155;-77
2022/12/13 01:12:12;;;;;;;55.97;41.83;;;-4.10;99.90;;;;;;5046928;28;20507;-77
2022/12/13 01:14:40;;;;;;;56.80;42.30;;;-4.20;99.90;;;;;;5028321;28;20049;-76
2022/12/13 01:17:06;;;;;;;60.77;44.90;;;-4.20;99.90;;;;;;5034255;28;20048;-76
2022/12/13 01:19:32;;;;;;;53.50;42.23;;;-4.20;99.90;;;;;;5042540;28;20040;-76
2022/12/13 01:22:04;;;;;;;60.47;45.83;;;-4.30;99.90;;;;;;5030470;28;20454;-74
2022/12/13 01:24:30;;;;;;;61.70;46.00;;;-4.30;99.90;;;;;;5044711;28;20499;-77
2022/12/13 01:26:56;;;;;;;51.80;40.40;;;-4.30;99.90;;;;;;5046994;28;20141;-75
2022/12/13 01:29:23;;;;;;;48.87;38.07;;;-4.30;99.90;;;;;;5039752;28;20392;-75
2022/12/13 01:31:49;;;;;;;51.93;39.33;;;-4.30;99.90;;;;;;5008274;28;20051;-75
2022/12/13 01:34:17;;;;;;;48.97;39.57;;;-4.30;99.90;;;;;;5025267;28;20040;-75
2022/12/13 01:36:45;;;;;;;49.87;39.10;;;-4.30;99.90;;;;;;5024314;28;20231;-74
2022/12/13 01:39:12;;;;;;;49.20;38.57;;;-4.30;99.90;;;;;;5016804;28;20063;-75
2022/12/13 01:41:38;;;;;;;55.43;41.67;;;-4.30;99.90;;;;;;5025620;28;20037;-74
2022/12/13 01:44:43;;;;;;;51.40;41.13;;;-4.20;99.90;;;;;;5015741;28;20052;-75
2022/12/13 01:47:09;;;;;;;50.00;39.87;;;-4.30;99.90;;;;;;5042804;28;20067;-75
2022/12/13 01:49:35;;;;;;;51.33;38.23;;;-4.30;99.90;;;;;;5003575;28;20044;-75
2022/12/13 01:52:07;;;;;;;48.77;37.30;;;-4.40;99.90;;;;;;5017739;28;20089;-75
2022/12/13 01:54:38;;;;;;;48.53;38.63;;;-4.40;99.90;;;;;;5041960;28;20050;-74
2022/12/13 01:57:07;;;;;;;50.30;39.70;;;-4.40;99.90;;;;;;5043220;28;20102;-74
2022/12/13 01:59:38;;;;;;;49.03;39.00;;;-4.30;99.90;;;;;;5043344;28;20070;-74
2022/12/13 02:02:06;;;;;;;49.33;39.30;;;-4.30;99.90;;;;;;5039528;28;20056;-75
2022/12/13 02:04:47;;;;;;;50.10;41.43;;;-4.30;99.90;;;;;;5034042;28;20106;-74
2022/12/13 02:07:15;;;;;;;48.57;39.23;;;-4.30;99.90;;;;;;5021170;28;20483;-75
2022/12/13 02:09:43;;;;;;;48.67;39.20;;;-4.40;99.90;;;;;;5038852;28;20049;-75
2022/12/13 02:12:11;;;;;;;51.67;38.43;;;-4.30;99.90;;;;;;5025094;28;20049;-76
2022/12/13 02:14:39;;;;;;;47.90;38.57;;;-4.30;99.90;;;;;;5024385;28;20059;-76
2022/12/13 02:17:20;;;;;;;49.87;40.23;;;-4.30;99.90;;;;;;5027548;28;20450;-75
2022/12/13 02:19:58;;;;;;;57.53;44.40;;;-4.30;99.90;;;;;;5040453;28;20800;-75
2022/12/13 02:22:41;;;;;;;53.00;41.97;;;-4.30;99.90;;;;;;5045803;28;20045;-76
2022/12/13 02:25:22;;;;;;;49.60;39.17;;;-4.30;99.90;;;;;;5040527;28;20081;-75
2022/12/13 02:28:13;;;;;;;48.33;39.37;;;-4.30;99.90;;;;;;5046299;28;20048;-75
2022/12/13 02:30:40;;;;;;;;;;;-4.30;99.90;;;;;;5029896;28;20048;-74
2022/12/13 02:33:32;;;;;;;44.90;36.93;;;-4.30;99.90;;;;;;5038649;28;19967;-76
2022/12/13 02:36:18;;;;;;;51.87;40.80;;;-4.40;99.90;;;;;;5044396;28;20041;-76
2022/12/13 02:39:01;;;;;;;53.37;40.60;;;-4.40;99.90;;;;;;5055819;28;20105;-75
2022/12/13 02:41:42;;;;;;;52.47;40.03;;;-4.40;99.90;;;;;;5034987;28;20044;-75
2022/12/13 02:44:18;;;;;;;47.00;38.27;;;-4.40;99.90;;;;;;5039620;28;20502;-74
2022/12/13 02:46:51;;;;;;;44.93;36.57;;;-4.40;99.90;;;;;;5040989;28;20126;-76
2022/12/13 02:49:19;;;;;;;48.03;38.93;;;-4.30;99.90;;;;;;5039883;28;20033;-75
2022/12/13 02:51:46;;;;;;;47.70;36.93;;;-4.40;99.90;;;;;;5042894;28;20043;-75
2022/12/13 02:54:12;;;;;;;45.00;36.83;;;-4.40;99.90;;;;;;5039199;28;20511;-75
2022/12/13 02:56:38;;;;;;;44.03;36.23;;;-4.40;99.90;;;;;;5043036;28;20069;-75
2022/12/13 02:59:12;;;;;;;46.27;36.77;;;-4.40;99.90;;;;;;5021706;28;20048;-75
2022/12/13 03:02:16;;;;;;;50.67;40.17;;;-4.40;99.90;;;;;;5021675;28;20048;-76
2022/12/13 03:08:55;;;;;;;44.40;36.00;;;-4.50;99.90;;;;;;5029474;28;20060;-75
2022/12/13 03:11:24;;;;;;;44.77;36.10;;;-4.60;99.90;;;;;;4964449;28;20397;-76
2022/12/13 03:14:01;;;;;;;44.20;36.37;;;-4.70;99.90;;;;;;5034132;28;20523;-75
2022/12/13 03:16:35;;;;;;;45.43;36.00;;;-4.70;99.90;;;;;;5014421;28;20036;-76
2022/12/13 03:19:05;;;;;;;46.03;36.77;;;-4.70;99.90;;;;;;5027906;28;20514;-76
2022/12/13 03:21:42;;;;;;;;;;;-4.70;99.90;;;;;;5030105;28;20090;-76
2022/12/13 03:24:12;;;;;;;42.57;34.63;;;-4.70;99.90;;;;;;5034705;28;19931;-75
2022/12/13 03:26:38;;;;;;;43.05;34.17;;;-4.80;99.90;;;;;;5021466;28;20109;-76
2022/12/13 03:29:07;;;;;;;43.57;35.97;;;-4.70;99.90;;;;;;5012297;28;20040;-75
2022/12/13 03:31:33;;;;;;;43.10;35.13;;;-4.70;99.90;;;;;;5047083;28;20076;-76
2022/12/13 03:34:00;;;;;;;44.57;36.40;;;-4.80;99.90;;;;;;5034516;28;20091;-75
2022/12/13 03:36:26;;;;;;;51.17;39.33;;;-4.80;99.90;;;;;;5017356;28;20051;-75
2022/12/13 03:38:54;;;;;;;44.47;36.53;;;-4.80;99.90;;;;;;5019866;28;20044;-76
2022/12/13 03:41:22;;;;;;;48.20;37.23;;;-4.90;99.90;;;;;;5015821;28;20082;-75
2022/12/13 03:43:49;;;;;;;47.07;35.90;;;-4.90;99.90;;;;;;5037714;28;20047;-75
2022/12/13 03:46:15;;;;;;;46.07;36.40;;;-5.00;99.90;;;;;;5045300;28;20040;-76
2022/12/13 03:48:40;;;;;;;51.90;39.27;;;-5.00;99.90;;;;;;5046584;28;20052;-75
2022/12/13 03:51:06;;;;;;;46.47;36.87;;;-5.10;99.90;;;;;;5024071;28;20043;-74
2022/12/13 03:53:32;;;;;;;51.37;39.57;;;-5.10;99.90;;;;;;5015730;28;20055;-75
2022/12/13 03:55:59;;;;;;;42.47;35.00;;;-5.20;99.90;;;;;;5039052;28;20041;-75
2022/12/13 03:58:24;;;;;;;44.47;35.97;;;-5.20;99.90;;;;;;5043490;28;20064;-76
2022/12/13 04:00:50;;;;;;;43.03;34.83;;;-5.20;99.90;;;;;;5024604;28;20056;-75
2022/12/13 04:03:16;;;;;;;41.73;35.87;;;-5.20;99.90;;;;;;5044272;28;20048;-76
2022/12/13 04:05:42;;;;;;;42.67;34.80;;;-5.20;99.90;;;;;;5008986;28;20037;-76
2022/12/13 04:08:11;;;;;;;48.47;37.60;;;-5.20;99.90;;;;;;5038113;28;20098;-76
2022/12/13 04:10:37;;;;;;;47.90;37.50;;;-5.10;99.90;;;;;;5022859;28;20499;-76
2022/12/13 04:15:50;;;;;;;45.17;36.80;;;-5.10;99.90;;;;;;5040555;28;20041;-75
2022/12/13 04:18:19;;;;;;;50.57;37.63;;;-5.00;99.90;;;;;;5044581;28;20048;-76
2022/12/13 04:20:46;;;;;;;44.33;35.97;;;-5.00;99.90;;;;;;5039903;28;20487;-76
2022/12/13 04:23:12;;;;;;;44.03;35.97;;;-5.00;99.90;;;;;;5027319;28;20070;-76
2022/12/13 04:25:39;;;;;;;46.30;36.50;;;-5.00;99.90;;;;;;5024658;28;20071;-75
2022/12/13 04:28:06;;;;;;;45.43;36.90;;;-5.00;99.90;;;;;;5023155;28;20135;-76
2022/12/13 04:30:32;;;;;;;48.67;40.57;;;-5.00;99.90;;;;;;5042196;28;20037;-75
2022/12/13 04:32:58;;;;;;;49.77;39.33;;;-4.90;99.90;;;;;;5027183;28;20051;-75
2022/12/13 04:35:24;;;;;;;47.17;38.83;;;-5.00;99.90;;;;;;5038904;28;20048;-76
2022/12/13 04:37:50;;;;;;;49.03;38.50;;;-4.90;99.90;;;;;;5007674;28;20879;-67
2022/12/13 04:40:16;;;;;;;49.17;40.00;;;-4.90;99.90;;;;;;5020883;28;20059;-66
2022/12/13 04:42:42;;;;;;;49.37;40.20;;;-4.90;99.90;;;;;;5024538;28;20041;-66
2022/12/13 04:45:11;;;;;;;52.03;40.50;;;-4.90;99.90;;;;;;5041569;28;20036;-66
2022/12/13 04:47:37;;;;;;;56.03;41.90;;;-4.90;99.90;;;;;;5042098;28;20042;-66
2022/12/13 04:50:03;;;;;;;47.93;38.60;;;-4.90;99.90;;;;;;5040741;28;20399;-66
2022/12/13 04:52:29;;;;;;;48.30;40.23;;;-4.90;99.90;;;;;;5021435;28;20040;-66
2022/12/13 04:54:54;;;;;;;47.70;38.27;;;-4.90;99.90;;;;;;5041475;28;20033;-66
2022/12/13 04:57:20;;;;;;;54.10;42.77;;;-4.90;99.90;;;;;;5024095;28;20048;-66
2022/12/13 04:59:46;;;;;;;50.50;38.70;;;-5.00;99.90;;;;;;5027463;28;20135;-66
2022/12/13 05:02:12;;;;;;;52.60;40.07;;;-4.90;99.90;;;;;;5014702;28;20407;-66
2022/12/13 05:04:38;;;;;;;51.63;41.63;;;-4.90;99.90;;;;;;5026306;28;20048;-66
2022/12/13 05:07:04;;;;;;;55.83;44.53;;;-5.00;99.90;;;;;;5028238;28;20061;-66
2022/12/13 05:09:29;;;;;;;53.47;42.60;;;-4.90;99.90;;;;;;5028335;28;20334;-66
2022/12/13 05:11:55;;;;;;;50.70;42.37;;;-4.90;99.90;;;;;;5029144;28;20044;-66
2022/12/13 05:14:21;;;;;;;54.93;43.20;;;-4.90;99.90;;;;;;5041173;28;20082;-66
2022/12/13 05:16:47;;;;;;;53.03;42.57;;;-4.80;99.90;;;;;;5047113;28;20485;-66
2022/12/13 05:19:12;;;;;;;54.67;44.23;;;-4.80;99.90;;;;;;5009479;28;20037;-76
2022/12/13 05:21:38;;;;;;;52.00;43.53;;;-4.80;99.90;;;;;;5044822;28;20045;-75
2022/12/13 05:24:05;;;;;;;51.53;41.97;;;-4.70;99.90;;;;;;5024901;28;20048;-75
2022/12/13 05:26:31;;;;;;;53.60;41.07;;;-4.70;99.90;;;;;;5007143;28;20518;-75
2022/12/13 05:28:57;;;;;;;49.33;39.87;;;-4.80;99.90;;;;;;5021550;28;20032;-75
2022/12/13 05:31:23;;;;;;;49.20;39.77;;;-4.80;99.90;;;;;;5027113;28;20044;-75
2022/12/13 05:33:50;;;;;;;52.60;42.43;;;-4.80;99.90;;;;;;5022955;28;20605;-76
2022/12/13 05:36:16;;;;;;;55.60;44.53;;;-4.80;99.90;;;;;;5038672;28;20087;-75
2022/12/13 05:38:41;;;;;;;56.07;44.13;;;-4.80;99.90;;;;;;5022603;28;20072;-76
2022/12/13 05:41:14;;;;;;;53.37;42.27;;;-4.70;99.90;;;;;;5037909;28;20056;-76
2022/12/13 05:43:40;;;;;;;57.27;44.97;;;-4.80;99.90;;;;;;5043984;28;20084;-76
2022/12/13 05:46:05;;;;;;;57.97;45.57;;;-4.80;99.90;;;;;;5024677;28;20048;-75
2022/12/13 05:48:31;;;;;;;61.30;46.93;;;-4.80;99.90;;;;;;5035523;28;20569;-75
2022/12/13 05:50:57;;;;;;;55.93;44.27;;;-4.80;99.90;;;;;;5038252;28;20767;-75
2022/12/13 05:53:23;;;;;;;60.93;48.23;;;-4.80;99.90;;;;;;5040469;28;20041;-75
2022/12/13 05:55:49;;;;;;;63.60;48.87;;;-4.70;99.90;;;;;;5017001;28;20045;-74
2022/12/13 05:58:15;;;;;;;58.43;46.63;;;-4.80;99.90;;;;;;5023626;28;21316;-75
2022/12/13 06:00:42;;;;;;;58.20;46.40;;;-4.70;99.90;;;;;;5019192;28;20486;-66
2022/12/13 06:03:08;;;;;;;57.97;46.27;;;-4.70;99.90;;;;;;5023375;28;20499;-66
2022/12/13 06:05:33;;;;;;;54.40;43.40;;;-4.70;99.90;;;;;;5039084;28;20272;-66
2022/12/13 06:07:59;;;;;;;66.90;50.97;;;-4.70;99.90;;;;;;5039024;28;20040;-66
2022/12/13 06:10:26;;;;;;;61.27;48.57;;;-4.70;99.90;;;;;;5032570;28;20514;-66
2022/12/13 06:12:52;;;;;;;67.17;50.30;;;-4.70;99.90;;;;;;5037934;28;20181;-76
2022/12/13 06:15:18;;;;;;;57.93;48.10;;;-4.60;99.90;;;;;;5022707;28;20099;-76
2022/12/13 06:17:43;;;;;;;53.87;42.93;;;-4.70;99.90;;;;;;5034220;28;20463;-66
2022/12/13 06:20:11;;;;;;;58.03;45.53;;;-4.80;99.90;;;;;;5040006;28;20052;-67
2022/12/13 06:22:38;;;;;;;58.17;46.60;;;-4.80;99.90;;;;;;4994290;28;20055;-76
2022/12/13 06:25:04;;;;;;;61.23;47.97;;;-4.80;99.90;;;;;;5020722;28;20092;-76
2022/12/13 06:27:30;;;;;;;55.80;46.27;;;-4.80;99.90;;;;;;5038751;28;20063;-74
2022/12/13 06:29:55;;;;;;;63.40;48.37;;;-4.70;99.90;;;;;;5034247;28;20040;-76
2022/12/13 06:32:21;;;;;;;61.00;48.83;;;-4.80;99.90;;;;;;5037315;28;20079;-75
2022/12/13 06:34:47;;;;;;;57.03;47.97;;;-4.80;99.90;;;;;;5007577;28;20041;-75
2022/12/13 06:37:13;;;;;;;61.70;47.93;;;-4.80;99.90;;;;;;5034348;28;20048;-75
2022/12/13 06:39:39;;;;;;;63.60;48.03;;;-4.80;99.90;;;;;;5015265;28;20052;-75
2022/12/13 06:42:09;;;;;;;62.07;47.80;;;-4.90;99.90;;;;;;5026100;28;20084;-80
2022/12/13 06:44:35;;;;;;;63.13;46.97;;;-4.90;99.90;;;;;;5020487;28;20072;-80
2022/12/13 06:47:01;;;;;;;64.17;49.97;;;-4.90;99.90;;;;;;5024933;28;20308;-80
2022/12/13 06:49:27;;;;;;;64.33;49.30;;;-4.80;99.90;;;;;;5035518;28;20040;-81
2022/12/13 06:51:53;;;;;;;68.23;51.17;;;-4.90;99.90;;;;;;5035840;28;20052;-80
2022/12/13 06:54:21;;;;;;;64.80;49.67;;;-4.90;99.90;;;;;;5004526;28;20110;-80
2022/12/13 06:56:47;;;;;;;67.97;50.00;;;-4.90;99.90;;;;;;5023611;28;20041;-80
2022/12/13 06:59:12;;;;;;;64.20;47.63;;;-4.90;99.90;;;;;;5041416;28;20044;-80
2022/12/13 07:01:38;;;;;;;65.03;48.27;;;-4.90;99.90;;;;;;5020300;28;20057;-80
2022/12/13 07:04:09;;;;;;;66.37;51.93;;;-4.90;99.90;;;;;;5030078;28;20041;-80
2022/12/13 07:06:35;;;;;;;61.97;47.30;;;-4.90;99.90;;;;;;5033860;28;20044;-78
2022/12/13 07:09:01;;;;;;;62.30;46.90;;;-4.90;99.90;;;;;;5034724;28;20052;-78
2022/12/13 07:11:30;;;;;;;70.40;53.07;;;-4.90;99.90;;;;;;5007490;28;20052;-70
2022/12/13 07:13:59;;;;;;;69.73;52.00;;;-4.90;99.90;;;;;;5024134;28;20037;-69
2022/12/13 07:16:26;;;;;;;70.10;51.00;;;-4.90;99.90;;;;;;5022249;28;20399;-70
2022/12/13 07:18:54;;;;;;;66.47;49.07;;;-4.90;99.90;;;;;;5043256;28;20037;-70
2022/12/13 07:21:20;;;;;;;66.67;49.67;;;-5.00;99.90;;;;;;5024793;28;20068;-70
2022/12/13 07:23:46;;;;;;;61.60;46.87;;;-5.00;99.90;;;;;;5025954;28;20075;-70
2022/12/13 07:26:12;;;;;;;68.47;51.07;;;-5.00;99.90;;;;;;5019353;28;20044;-79
2022/12/13 07:28:38;;;;;;;67.23;52.07;;;-5.00;99.90;;;;;;5006982;28;20049;-78
2022/12/13 07:31:06;;;;;;;63.93;48.80;;;-5.00;99.90;;;;;;4991639;28;20044;-78
2022/12/13 07:33:32;;;;;;;70.00;50.53;;;-5.00;99.90;;;;;;5025011;28;20045;-79
2022/12/13 07:36:08;;;;;;;67.73;51.07;;;-5.00;99.90;;;;;;5039565;28;20105;-79
2022/12/13 07:38:35;;;;;;;72.53;53.43;;;-5.00;99.90;;;;;;5022011;28;20131;-80
2022/12/13 07:41:01;;;;;;;61.70;47.30;;;-5.00;99.90;;;;;;5022862;28;20048;-79
2022/12/13 07:43:28;;;;;;;67.47;50.07;;;-5.00;99.90;;;;;;5043074;28;20082;-79
2022/12/13 07:45:58;;;;;;;63.33;48.87;;;-4.90;99.90;;;;;;5023974;28;20075;-78
2022/12/13 07:48:25;;;;;;;71.30;54.23;;;-4.90;99.90;;;;;;5024844;28;20083;-79
2022/12/13 07:50:51;;;;;;;68.83;52.30;;;-4.90;99.90;;;;;;5020814;28;20037;-79
2022/12/13 07:53:17;;;;;;;70.83;52.50;;;-4.90;99.90;;;;;;5006852;28;20137;-78
2022/12/13 07:55:43;;;;;;;74.60;55.27;;;-4.90;99.90;;;;;;5020261;28;20032;-79
2022/12/13 07:58:10;;;;;;;71.90;52.20;;;-4.80;99.90;;;;;;5017827;28;20037;-79
2022/12/13 08:00:37;;;;;;;70.87;52.20;;;-4.80;99.90;;;;;;5019413;28;20500;-79
2022/12/13 08:03:04;;;;;;;73.97;54.13;;;-4.80;99.90;;;;;;5016228;28;20047;-79
2022/12/13 08:05:31;;;;;;;81.00;58.53;;;-4.80;99.90;;;;;;5025939;28;20075;-79
2022/12/13 08:07:58;;;;;;;76.10;54.77;;;-4.70;99.90;;;;;;5014302;28;20045;-79
2022/12/13 08:10:24;;;;;;;81.13;58.93;;;-4.70;99.90;;;;;;5038035;28;20538;-79
2022/12/13 08:12:50;;;;;;;85.70;59.40;;;-4.70;99.90;;;;;;5021563;28;20407;-79
2022/12/13 08:15:16;;;;;;;82.27;56.93;;;-4.70;99.90;;;;;;4993173;28;20040;-79
2022/12/13 08:17:42;;;;;;;78.70;56.17;;;-4.70;99.90;;;;;;5041787;28;20502;-79
2022/12/13 08:20:08;;;;;;;77.33;57.37;;;-4.70;99.90;;;;;;5022584;28;20131;-79
2022/12/13 08:22:34;;;;;;;85.10;59.37;;;-4.60;99.90;;;;;;5043811;28;20576;-78
2022/12/13 08:25:00;;;;;;;77.40;57.97;;;-4.60;99.90;;;;;;5020251;28;20053;-79
2022/12/13 08:27:26;;;;;;;79.30;58.03;;;-4.50;99.90;;;;;;5010303;28;20044;-79
2022/12/13 08:29:52;;;;;;;76.47;55.53;;;-4.60;99.90;;;;;;5023599;28;20251;-79
2022/12/13 08:32:18;;;;;;;81.03;58.07;;;-4.50;99.90;;;;;;5008872;28;20044;-79
2022/12/13 08:34:44;;;;;;;89.73;64.20;;;-4.50;99.90;;;;;;5028936;28;20427;-79
2022/12/13 08:37:11;;;;;;;89.20;62.03;;;-4.50;99.90;;;;;;5046809;28;20060;-79
2022/12/13 08:39:38;;;;;;;86.90;62.57;;;-4.50;99.90;;;;;;5031691;28;20048;-79
2022/12/13 08:42:12;;;;;;;84.57;61.40;;;-4.40;99.90;;;;;;5023989;28;20117;-79
2022/12/13 08:44:38;;;;;;;85.93;62.53;;;-4.40;99.90;;;;;;5045921;28;20045;-71
2022/12/13 08:47:04;;;;;;;92.57;63.27;;;-4.30;99.90;;;;;;5022479;28;20033;-71
2022/12/13 08:49:30;;;;;;;93.17;64.70;;;-4.30;99.90;;;;;;5006789;28;20127;-70
2022/12/13 08:51:56;;;;;;;94.17;65.67;;;-4.20;99.90;;;;;;5045007;28;20044;-70
2022/12/13 08:54:22;;;;;;;87.43;62.30;;;-4.10;99.90;;;;;;5027212;28;20090;-70
2022/12/13 08:56:47;;;;;;;87.30;63.13;;;-4.10;99.90;;;;;;5013508;28;20111;-71
2022/12/13 08:59:13;;;;;;;95.30;65.67;;;-4.10;99.90;;;;;;5011329;28;20991;-71
2022/12/13 09:01:39;;;;;;;97.10;69.60;;;-4.00;99.90;;;;;;5027161;28;20131;-71
2022/12/13 09:04:05;;;;;;;87.67;64.17;;;-4.00;99.90;;;;;;5012227;28;20073;-70
2022/12/13 09:06:31;;;;;;;89.70;64.40;;;-3.90;99.90;;;;;;5042983;28;20052;-71
2022/12/13 09:08:57;;;;;;;87.33;62.37;;;-3.90;99.90;;;;;;5028943;28;20119;-71
2022/12/13 09:11:22;;;;;;;92.37;65.77;;;-3.90;99.90;;;;;;5047093;28;20546;-71
2022/12/13 09:13:48;;;;;;;89.07;64.83;;;-3.80;99.90;;;;;;5028222;28;20461;-71
2022/12/13 09:16:29;;;;;;;89.43;64.40;;;-3.80;99.90;;;;;;5011679;28;20518;-70
2022/12/13 09:18:54;;;;;;;;;;;-3.80;99.90;;;;;;5009421;28;20045;-71
2022/12/13 09:21:20;;;;;;;97.80;69.77;;;-3.70;99.90;;;;;;5014045;28;19943;-71
2022/12/13 09:23:46;;;;;;;94.67;65.57;;;-3.70;99.90;;;;;;5027587;28;20032;-70
2022/12/13 09:26:14;;;;;;;100.33;71.53;;;-3.60;99.90;;;;;;5009875;28;20041;-71
2022/12/13 09:28:41;;;;;;;95.47;71.83;;;-3.50;99.90;;;;;;5017649;28;20037;-71
2022/12/13 09:31:15;;;;;;;92.90;66.93;;;-3.50;99.90;;;;;;5014553;28;20041;-71
2022/12/13 09:33:41;;;;;;;92.10;66.93;;;-3.50;99.90;;;;;;5030049;28;20109;-71
2022/12/13 09:36:10;;;;;;;94.50;66.77;;;-3.40;99.90;;;;;;5047198;28;20533;-71
2022/12/13 09:38:36;;;;;;;93.93;67.70;;;-3.30;99.90;;;;;;5031141;28;20044;-71
2022/12/13 09:41:19;;;;;;;103.73;72.23;;;-3.30;99.90;;;;;;5008095;28;20473;-71
2022/12/13 09:43:52;;;;;;;96.30;69.03;;;-3.20;99.90;;;;;;5041908;28;20067;-71
2022/12/13 09:46:29;;;;;;;89.50;66.93;;;-3.20;99.90;;;;;;5026685;28;20494;-71
2022/12/13 09:48:57;;;;;;;89.67;66.03;;;-3.10;99.90;;;;;;5054019;28;20460;-72
2022/12/13 09:51:24;;;;;;;92.60;66.20;;;-3.10;99.90;;;;;;5041878;28;20109;-80
2022/12/13 09:53:52;;;;;;;100.07;72.97;;;-3.00;99.90;;;;;;5013011;28;20105;-80
2022/12/13 09:56:20;;;;;;;94.33;69.53;;;-3.00;99.90;;;;;;5027599;28;20071;-80
2022/12/13 09:58:55;;;;;;;95.50;71.70;;;-2.90;99.90;;;;;;5025859;28;20044;-80
2022/12/13 10:01:21;;;;;;;100.50;72.37;;;-2.90;99.90;;;;;;5034113;28;20044;-78
2022/12/13 10:03:50;;;;;;;89.07;67.83;;;-2.80;99.90;;;;;;5043060;28;20036;-78
2022/12/13 10:06:17;;;;;;;89.10;67.30;;;-2.80;99.90;;;;;;5022839;28;20061;-78
2022/12/13 10:08:52;;;;;;;95.90;71.23;;;-2.70;99.90;;;;;;5027000;28;20415;-70
2022/12/13 10:11:19;;;;;;;89.10;67.37;;;-2.70;99.90;;;;;;5030037;28;20067;-70
2022/12/13 10:13:58;;;;;;;89.53;68.53;;;-2.60;99.90;;;;;;5025870;28;20048;-70
2022/12/13 10:16:33;;;;;;;92.57;68.47;;;-2.50;99.90;;;;;;5031188;28;20045;-70
2022/12/13 10:19:17;;;;;;;88.53;68.33;;;-2.50;99.90;;;;;;5039208;28;20087;-70
2022/12/13 10:21:44;;;;;;;90.47;69.67;;;-2.40;99.90;;;;;;5040441;28;20068;-70
2022/12/13 10:24:20;;;;;;;90.90;67.83;;;-2.40;99.90;;;;;;5034194;28;20526;-71
2022/12/13 10:26:46;;;;;;;97.43;74.17;;;-2.30;99.90;;;;;;5021957;28;20072;-70
2022/12/13 10:29:12;;;;;;;95.80;70.13;;;-2.20;99.90;;;;;;5026283;28;20051;-70
2022/12/13 10:31:44;;;;;;;91.97;71.03;;;-2.20;99.90;;;;;;5020751;28;20177;-70
2022/12/13 10:34:26;;;;;;;98.43;74.17;;;-2.10;99.90;;;;;;5023286;28;20045;-70
2022/12/13 10:36:53;;;;;;;93.60;70.07;;;-2.10;99.90;;;;;;5018533;28;20076;-70
2022/12/13 10:39:42;;;;;;;90.07;68.43;;;-2.10;99.90;;;;;;5012084;28;20216;-80
2022/12/13 10:42:16;;;;;;;91.40;67.53;;;-2.00;99.90;;;;;;5021381;28;20610;-81
2022/12/13 10:44:42;;;;;;;87.93;67.37;;;-2.00;99.90;;;;;;5036493;28;20074;-81
2022/12/13 10:47:22;;;;;;;89.80;69.93;;;-1.90;99.90;;;;;;5038897;28;20048;-81
2022/12/13 10:50:00;;;;;;;79.45;64.80;;;-1.90;99.90;;;;;;5012137;28;20044;-80
2022/12/13 10:52:30;;;;;;;88.33;67.83;;;-1.90;99.90;;;;;;5041394;28;20281;-81
2022/12/13 10:54:57;;;;;;;;;;;-1.90;99.90;;;;;;5041290;28;20133;-81
2022/12/13 10:57:24;;;;;;;77.73;62.80;;;-1.90;99.90;;;;;;5021623;28;19925;-81
2022/12/13 10:59:51;;;;;;;83.07;67.70;;;-1.80;99.90;;;;;;5003118;28;20515;-80
2022/12/13 11:02:34;;;;;;;77.00;63.17;;;-1.80;99.90;;;;;;5016732;28;20041;-81
2022/12/13 11:05:25;;;;;;;80.57;64.30;;;-1.70;99.90;;;;;;5039136;28;20063;-80
2022/12/13 11:07:51;;;;;;;81.70;64.15;;;-1.70;99.90;;;;;;5022566;28;20655;-80
2022/12/13 11:10:20;;;;;;;87.07;67.90;;;-1.60;99.90;;;;;;5007557;28;20110;-78
2022/12/13 11:12:46;;;;;;;77.70;62.57;;;-1.60;99.90;;;;;;5022234;28;20047;-80
2022/12/13 11:15:19;;;;;;;75.90;60.80;;;-1.60;99.90;;;;;;5019801;28;20049;-80
2022/12/13 11:17:55;;;;;;;80.80;65.13;;;-1.50;99.90;;;;;;5038101;28;20501;-80
2022/12/13 11:20:45;;;;;;;86.73;67.33;;;-1.50;99.90;;;;;;5037609;28;20048;-80
2022/12/13 11:23:52;;;;;;;83.47;64.33;;;-1.50;99.90;;;;;;5037730;28;20139;-80
2022/12/13 11:26:20;;;;;;;83.93;66.43;;;-1.50;99.90;;;;;;4990476;28;20092;-80
2022/12/13 11:29:04;;;;;;;77.77;62.17;;;-1.50;99.90;;;;;;4962936;28;20042;-80
2022/12/13 11:31:44;;;;;;;76.70;62.90;;;-1.40;99.90;;;;;;5015149;28;20098;-80
2022/12/13 11:34:29;;;;;;;83.65;66.85;;;-1.40;99.90;;;;;;5040780;28;20150;-81
2022/12/13 11:37:14;;;;;;;79.53;64.07;;;-1.40;99.90;;;;;;5024043;28;20044;-79
2022/12/13 11:39:54;;;;;;;78.60;63.77;;;-1.30;99.90;;;;;;5042599;28;20075;-80
2022/12/13 11:42:45;;;;;;;79.23;64.50;;;-1.30;99.90;;;;;;5022903;28;20119;-80
2022/12/13 11:45:17;;;;;;;;;;;-1.30;99.90;;;;;;5013431;28;20044;-81
2022/12/13 11:48:18;;;;;;;75.10;61.80;;;-1.30;99.90;;;;;;5034600;28;20526;-80
2022/12/13 11:50:47;;;;;;;77.47;64.50;;;-1.20;99.90;;;;;;4979735;28;20587;-80
2022/12/13 11:53:42;;;;;;;74.20;61.30;;;-1.20;99.90;;;;;;5004462;28;20056;-80
2022/12/13 11:56:35;;;;;;;74.27;61.90;;;-1.10;99.90;;;;;;5031626;28;20056;-80
2022/12/13 11:59:41;;;;;;;74.93;62.57;;;-1.10;99.90;;;;;;5021265;28;20036;-80
2022/12/13 12:02:32;;;;;;;67.10;57.83;;;-1.00;99.90;;;;;;5035435;28;20479;-80
2022/12/13 12:05:03;;;;;;;69.17;58.93;;;-1.00;99.90;;;;;;5021585;28;20152;-80
2022/12/13 12:07:44;;;;;;;66.80;57.67;;;-0.90;99.90;;;;;;5036253;28;20051;-80
2022/12/13 12:10:12;;;;;;;71.80;58.30;;;-0.90;99.90;;;;;;5035211;28;20139;-80
2022/12/13 12:12:47;;;;;;;69.00;59.47;;;-0.90;99.90;;;;;;5023566;28;20102;-80
2022/12/13 12:15:19;;;;;;;64.47;52.97;;;-0.80;99.90;;;;;;5029257;28;20045;-80
2022/12/13 12:17:45;;;;;;;63.47;54.47;;;-0.80;99.90;;;;;;5025551;28;20048;-80
2022/12/13 12:20:18;;;;;;;64.53;55.50;;;-0.70;99.90;;;;;;5008834;28;20098;-80
2022/12/13 12:22:56;;;;;;;65.30;56.40;;;-0.70;99.90;;;;;;5021071;28;20098;-80
2022/12/13 12:25:36;;;;;;;60.70;53.20;;;-0.70;99.90;;;;;;5017955;28;20053;-81
2022/12/13 12:28:21;;;;;;;59.33;51.07;;;-0.70;99.90;;;;;;5041047;28;20359;-80
2022/12/13 12:30:53;;;;;;;62.33;54.23;;;-0.60;99.90;;;;;;5038625;28;20581;-80
2022/12/13 12:34:09;;;;;;;61.50;52.87;;;-0.50;99.90;;;;;;5020649;28;20049;-80
2022/12/13 12:36:46;;;;;;;61.33;53.07;;;-0.50;99.90;;;;;;5021605;28;20419;-80
2022/12/13 12:39:14;;;;;;;62.00;52.90;;;-0.50;99.90;;;;;;5034072;28;20083;-81
2022/12/13 12:41:54;;;;;;;62.10;55.37;;;-0.50;99.90;;;;;;5018430;28;20299;-80
2022/12/13 12:44:23;;;;;;;;;;;-0.50;99.90;;;;;;5034677;28;20047;-80
2022/12/13 12:47:31;;;;;;;58.37;50.80;;;-0.50;99.90;;;;;;5032489;28;19968;-80
2022/12/13 12:50:12;;;;;;;60.57;51.73;;;-0.50;99.90;;;;;;5000981;28;20618;-80